Terminal Aerodrome Forecast
Issued by NWS

Home | Current Version | Previous Version | Text Only | Print | Product List | Glossary On
Versions: 1 2 3 4 5 6 7 8 9 10 11 12 13 14
000
FTUS41 KLWX 241728
TAFMTN
TAF
KMTN 241728Z 2418/2518 12011KT P6SM SCT200
     FM250300 16008KT P6SM BKN200
     FM250500 16007KT P6SM BKN030
     FM251200 16005KT P6SM BKN008
     FM251400 16008KT P6SM BKN025=

USA.gov is the U.S. government's official web portal to all federal, state and local government web resources and services.